createdAt,value
2018-10-17T00:00:18.073Z,100805.60
2018-10-17T00:05:01.068Z,100802.49
2018-10-17T00:09:43.885Z,100804.77
2018-10-17T00:14:27.925Z,100806.66
2018-10-17T00:19:10.804Z,100790.06
2018-10-17T00:23:54.844Z,100780.22
2018-10-17T00:28:37.697Z,100779.63
2018-10-17T00:33:20.552Z,100774.47
2018-10-17T00:38:03.432Z,100774.94
2018-10-17T00:42:46.337Z,100765.66
2018-10-17T00:47:29.404Z,100762.97
2018-10-17T00:52:12.314Z,100762.86
2018-10-17T00:56:57.284Z,100759.19
2018-10-17T01:01:40.264Z,100757.78
2018-10-17T01:06:24.349Z,100765.10
2018-10-17T01:11:07.607Z,100758.27
2018-10-17T01:15:51.654Z,100756.44
2018-10-17T01:20:34.563Z,100764.94
2018-10-17T01:25:18.477Z,100767.73
2018-10-17T01:30:01.328Z,100767.74
2018-10-17T01:34:44.200Z,100785.45
2018-10-17T01:39:27.058Z,100792.13
2018-10-17T01:44:09.958Z,100800.45
2018-10-17T01:48:52.850Z,100810.30
2018-10-17T01:53:36.013Z,100811.20
2018-10-17T01:58:18.913Z,100814.16
2018-10-17T02:03:03.868Z,100811.64
2018-10-17T02:07:46.742Z,100809.83
2018-10-17T02:12:30.601Z,100812.29
2018-10-17T02:17:13.539Z,100794.13
2018-10-17T02:21:56.357Z,100795.06
2018-10-17T02:26:40.276Z,100795.73
2018-10-17T02:31:23.189Z,100796.89
2018-10-17T02:36:09.673Z,100792.12
2018-10-17T02:40:52.558Z,100776.61
2018-10-17T02:45:37.446Z,100763.41
2018-10-17T02:50:20.284Z,100744.80
2018-10-17T02:55:03.324Z,100729.95
2018-10-17T02:59:46.106Z,100715.41
2018-10-17T03:04:29.248Z,100695.79
2018-10-17T03:09:12.125Z,100689.39
2018-10-17T03:13:55.023Z,100698.14
2018-10-17T03:18:37.953Z,100697.16
2018-10-17T03:23:21.107Z,100696.45
2018-10-17T03:28:04.039Z,100699.69
2018-10-17T03:32:50.635Z,100678.97
2018-10-17T03:37:33.670Z,100671.54
2018-10-17T03:42:17.634Z,100662.58
2018-10-17T03:47:00.604Z,100664.84
2018-10-17T03:51:43.463Z,100666.97
2018-10-17T03:56:28.598Z,100663.36
2018-10-17T04:01:11.493Z,100633.77
2018-10-17T04:05:55.415Z,100620.04
2018-10-17T04:10:38.682Z,100640.97
2018-10-17T04:15:22.769Z,100650.80
2018-10-17T04:20:05.833Z,100642.57
2018-10-17T04:24:48.753Z,100634.73
2018-10-17T04:29:43.753Z,100643.55
2018-10-17T04:34:26.829Z,100662.97
2018-10-17T04:39:11.123Z,100681.59
2018-10-17T04:43:54.142Z,100680.92
2018-10-17T04:48:37.130Z,100686.35
2018-10-17T04:53:20.099Z,100704.01
2018-10-17T04:58:03.497Z,100718.00
2018-10-17T05:02:48.146Z,100706.11
2018-10-17T05:07:31.036Z,100706.20
2018-10-17T05:12:15.029Z,100699.89
2018-10-17T05:16:58.123Z,100695.09
2018-10-17T05:21:41.214Z,100683.36
2018-10-17T05:26:24.083Z,100697.66
2018-10-17T05:31:07.017Z,100720.11
2018-10-17T05:35:50.908Z,100715.67
2018-10-17T05:40:33.777Z,100716.94
2018-10-17T05:45:16.709Z,100722.15
2018-10-17T05:49:59.592Z,100735.77
2018-10-17T05:54:42.698Z,100734.05
2018-10-17T05:59:25.624Z,100746.72
2018-10-17T06:04:09.184Z,100753.08
2018-10-17T06:08:52.054Z,100755.37
2018-10-17T06:13:35.005Z,100766.16
2018-10-17T06:18:18.933Z,100768.59
2018-10-17T06:23:01.845Z,100771.86
2018-10-17T06:27:44.727Z,100762.95
2018-10-17T06:32:27.907Z,100763.25
2018-10-17T06:37:10.869Z,100768.37
2018-10-17T06:41:53.825Z,100779.11
2018-10-17T06:46:36.778Z,100789.75
2018-10-17T06:51:19.700Z,100811.83
2018-10-17T06:56:02.515Z,100810.92
2018-10-17T07:00:45.396Z,100819.87
2018-10-17T07:05:29.290Z,100817.70
2018-10-17T07:10:12.156Z,100825.64
2018-10-17T07:14:55.073Z,100825.90
2018-10-17T07:19:37.988Z,100825.17
2018-10-17T07:24:21.118Z,100818.47
2018-10-17T07:29:04.049Z,100804.02
2018-10-17T07:33:47.078Z,100805.14
2018-10-17T07:38:29.920Z,100800.75
2018-10-17T07:43:16.702Z,100793.14
2018-10-17T07:47:59.595Z,100785.09
2018-10-17T07:52:42.477Z,100776.00
2018-10-17T07:57:25.335Z,100771.20
2018-10-17T08:02:09.240Z,100760.19
2018-10-17T08:06:52.103Z,100769.27
2018-10-17T08:11:36.468Z,100763.55
2018-10-17T08:16:19.335Z,100766.22
2018-10-17T08:21:02.186Z,100750.55
2018-10-17T08:25:47.232Z,100746.93
2018-10-17T08:30:30.139Z,100735.31
2018-10-17T08:35:14.112Z,100728.12
2018-10-17T08:39:56.921Z,100728.52
2018-10-17T08:44:40.820Z,100738.72
2018-10-17T08:49:23.726Z,100741.11
2018-10-17T08:54:06.626Z,100751.91
2018-10-17T08:58:49.606Z,100746.38
2018-10-17T09:03:32.645Z,100753.39
2018-10-17T09:08:15.595Z,100756.57
2018-10-17T09:12:59.540Z,100756.89
2018-10-17T09:17:42.416Z,100762.50
2018-10-17T09:22:25.741Z,100753.48
2018-10-17T09:27:08.611Z,100759.20
2018-10-17T09:31:51.730Z,100756.00
2018-10-17T09:36:34.644Z,100752.67
2018-10-17T09:41:17.739Z,100752.19
2018-10-17T09:46:00.660Z,100747.19
2018-10-17T09:50:43.530Z,100750.56
2018-10-17T09:55:26.667Z,100739.35
2018-10-17T10:01:12.387Z,100736.09
2018-10-17T10:05:55.432Z,100739.73
2018-10-17T10:10:38.310Z,100735.84
2018-10-17T10:15:22.514Z,100728.31
2018-10-17T10:20:05.603Z,100734.44
2018-10-17T10:24:50.655Z,100725.37
2018-10-17T10:29:33.490Z,100715.70
2018-10-17T10:34:16.635Z,100708.59
2018-10-17T10:39:01.370Z,100696.98
2018-10-17T10:43:46.410Z,100692.24
2018-10-17T10:48:29.537Z,100700.72
2018-10-17T10:53:12.435Z,100683.73
2018-10-17T10:57:56.243Z,100703.40
2018-10-17T11:02:39.216Z,100697.56
2018-10-17T11:07:22.114Z,100691.76
2018-10-17T11:12:06.467Z,100695.63
2018-10-17T11:16:49.348Z,100685.29
2018-10-17T11:21:33.303Z,100682.69
2018-10-17T11:27:45.635Z,100690.77
2018-10-17T11:32:28.665Z,100679.42
2018-10-17T11:37:11.561Z,100685.55
2018-10-17T11:41:56.502Z,100679.36
2018-10-17T11:46:39.383Z,100670.83
2018-10-17T11:51:25.546Z,100670.13
2018-10-17T11:56:08.573Z,100664.70
2018-10-17T12:00:51.787Z,100660.84
2018-10-17T12:05:35.050Z,100650.59
2018-10-17T12:10:17.910Z,100649.08
2018-10-17T12:15:08.692Z,100633.05
2018-10-17T12:19:52.555Z,100633.47
2018-10-17T12:24:38.650Z,100626.72
2018-10-17T12:29:21.758Z,100622.47
2018-10-17T12:34:06.253Z,100624.94
2018-10-17T12:38:49.670Z,100620.47
2018-10-17T12:43:32.833Z,100620.94
2018-10-17T12:48:16.146Z,100614.84
2018-10-17T12:52:59.454Z,100610.93
2018-10-17T12:57:44.004Z,100609.20
2018-10-17T13:02:27.155Z,100612.53
2018-10-17T13:07:10.399Z,100601.76
2018-10-17T13:11:59.304Z,100600.37
2018-10-17T13:16:44.703Z,100588.84
2018-10-17T13:21:28.894Z,100595.20
2018-10-17T13:26:11.993Z,100597.71
2018-10-17T13:30:56.418Z,100593.88
2018-10-17T13:35:39.442Z,100592.19
2018-10-17T13:40:23.008Z,100593.92
2018-10-17T13:45:06.614Z,100600.19
2018-10-17T13:49:49.630Z,100606.48
2018-10-17T13:54:32.756Z,100607.81
2018-10-17T13:59:15.780Z,100607.62
2018-10-17T14:04:03.111Z,100603.66
2018-10-17T14:08:46.111Z,100600.69
2018-10-17T14:13:30.529Z,100599.25
2018-10-17T14:18:13.530Z,100591.09
2018-10-17T14:22:57.652Z,100590.19
2018-10-17T14:27:40.745Z,100586.86
2018-10-17T14:32:25.945Z,100578.02
2018-10-17T14:37:08.970Z,100574.87
2018-10-17T14:41:54.127Z,100580.39
2018-10-17T14:46:37.094Z,100576.68
2018-10-17T14:51:22.080Z,100572.66
2018-10-17T14:56:06.081Z,100568.41
2018-10-17T15:00:50.174Z,100566.05
2018-10-17T15:05:33.204Z,100564.31
2018-10-17T15:10:17.334Z,100566.23
2018-10-17T15:15:00.417Z,100580.09
2018-10-17T15:19:43.372Z,100590.83
2018-10-17T15:24:26.277Z,100593.86
2018-10-17T15:29:09.210Z,100590.84
2018-10-17T15:33:52.384Z,100605.02
2018-10-17T15:38:35.338Z,100605.00
2018-10-17T15:43:21.752Z,100608.22
2018-10-17T15:48:05.070Z,100605.91
2018-10-17T15:52:49.067Z,100608.56
2018-10-17T15:57:31.984Z,100606.02
2018-10-17T16:02:16.034Z,100613.80
2018-10-17T16:06:58.997Z,100603.41
2018-10-17T16:11:46.229Z,100614.55
2018-10-17T16:16:29.548Z,100618.30
2018-10-17T16:21:14.339Z,100622.86
2018-10-17T16:25:58.534Z,100625.78
2018-10-17T16:30:45.865Z,100626.38
2018-10-17T16:35:28.697Z,100627.21
2018-10-17T16:40:12.643Z,100633.86
2018-10-17T16:44:55.535Z,100624.78
2018-10-17T16:49:38.477Z,100630.92
2018-10-17T16:54:22.592Z,100624.45
2018-10-17T16:59:05.523Z,100627.88
2018-10-17T17:03:48.547Z,100629.23
2018-10-17T17:08:31.431Z,100627.20
2018-10-17T17:13:14.310Z,100618.76
2018-10-17T17:17:57.393Z,100614.95
2018-10-17T17:22:41.115Z,100611.52
2018-10-17T17:27:24.027Z,100626.33
2018-10-17T17:32:09.363Z,100629.48
2018-10-17T17:36:52.250Z,100623.55
2018-10-17T17:41:38.516Z,100635.66
2018-10-17T17:46:21.461Z,100632.30
2018-10-17T17:51:06.150Z,100632.04
2018-10-17T17:55:51.515Z,100622.63
2018-10-17T18:00:47.281Z,100624.59
2018-10-17T18:05:34.439Z,100622.09
2018-10-17T18:10:17.351Z,100621.29
2018-10-17T18:15:00.262Z,100628.41
2018-10-17T18:19:44.482Z,100623.97
2018-10-17T18:24:28.192Z,100633.97
2018-10-17T18:29:11.067Z,100631.75
2018-10-17T18:33:55.134Z,100629.81
2018-10-17T18:38:41.723Z,100620.56
2018-10-17T18:43:25.218Z,100622.64
2018-10-17T18:48:08.184Z,100629.55
2018-10-17T18:52:51.262Z,100627.19
2018-10-17T18:57:34.151Z,100628.09
2018-10-17T19:02:18.272Z,100627.70
2018-10-17T19:07:02.923Z,100623.27
2018-10-17T19:11:47.882Z,100637.39
2018-10-17T19:16:33.056Z,100639.96
2018-10-17T19:21:17.995Z,100647.83
2018-10-17T19:26:00.899Z,100646.70
2018-10-17T19:30:44.771Z,100647.12
2018-10-17T19:35:27.742Z,100651.46
2018-10-17T19:40:11.478Z,100640.14
2018-10-17T19:44:54.509Z,100642.03
2018-10-17T19:49:38.667Z,100647.12
2018-10-17T19:54:21.950Z,100644.92
2018-10-17T19:59:05.296Z,100652.14
2018-10-17T20:03:48.309Z,100657.20
2018-10-17T20:08:31.212Z,100652.30
2018-10-17T20:13:14.382Z,100655.38
2018-10-17T20:17:57.622Z,100642.98
2018-10-17T20:22:41.665Z,100643.47
2018-10-17T20:27:24.528Z,100647.50
2018-10-17T20:32:08.310Z,100640.97
2018-10-17T20:36:51.157Z,100633.91
2018-10-17T20:41:34.682Z,100637.73
2018-10-17T20:46:17.614Z,100631.91
2018-10-17T20:51:01.709Z,100625.79
2018-10-17T20:55:44.561Z,100619.11
2018-10-17T21:00:29.589Z,100614.57
2018-10-17T21:05:12.512Z,100622.57
2018-10-17T21:09:55.538Z,100609.15
2018-10-17T21:14:38.414Z,100601.85
2018-10-17T21:19:21.546Z,100601.07
2018-10-17T21:24:04.880Z,100598.12
2018-10-17T21:28:47.830Z,100588.63
2018-10-17T21:33:30.857Z,100591.05
2018-10-17T21:38:13.767Z,100581.00
2018-10-17T21:42:56.786Z,100584.56
2018-10-17T21:47:39.692Z,100573.91
2018-10-17T21:52:22.754Z,100581.74
2018-10-17T21:57:06.341Z,100581.04
2018-10-17T22:01:49.301Z,100584.83
2018-10-17T22:06:32.194Z,100590.70
2018-10-17T22:11:15.158Z,100587.89
2018-10-17T22:16:03.633Z,100588.38
2018-10-17T22:20:46.716Z,100580.08
2018-10-17T22:25:29.627Z,100576.07
2018-10-17T22:30:12.724Z,100570.39
2018-10-17T22:34:55.578Z,100575.08
2018-10-17T22:39:38.506Z,100565.43
2018-10-17T22:44:21.426Z,100571.39
2018-10-17T22:49:04.967Z,100575.44
2018-10-17T22:53:48.107Z,100566.75
2018-10-17T22:58:30.938Z,100575.91
2018-10-17T23:03:14.126Z,100571.63
2018-10-17T23:07:56.987Z,100570.48
2018-10-17T23:12:40.987Z,100573.38
2018-10-17T23:17:23.850Z,100566.30
2018-10-17T23:22:06.737Z,100564.19
2018-10-17T23:26:49.666Z,100562.05
2018-10-17T23:31:33.534Z,100562.18
2018-10-17T23:36:16.409Z,100563.13
2018-10-17T23:40:59.333Z,100556.95
2018-10-17T23:45:42.191Z,100546.19
2018-10-17T23:50:26.103Z,100539.67
2018-10-17T23:55:09.430Z,100525.52
2018-10-17T23:59:52.445Z,100516.34
